createdAt,value
2023-03-26T00:00:36.124Z,92.02
2023-03-26T00:01:36.168Z,92.02
2023-03-26T00:02:36.186Z,92.12
2023-03-26T00:03:36.097Z,92.12
2023-03-26T00:04:36.083Z,92.22
2023-03-26T00:05:36.145Z,92.22
2023-03-26T00:06:36.081Z,92.33
2023-03-26T00:07:36.056Z,92.33
2023-03-26T00:08:36.050Z,92.22
2023-03-26T00:09:36.031Z,92.12
2023-03-26T00:10:36.089Z,92.22
2023-03-26T00:11:36.024Z,92.22
2023-03-26T00:12:36.014Z,92.22
2023-03-26T00:13:35.985Z,92.12
2023-03-26T00:14:35.984Z,92.12
2023-03-26T00:15:35.965Z,92.02
2023-03-26T00:16:36.023Z,91.91
2023-03-26T00:17:35.989Z,92.02
2023-03-26T00:18:35.940Z,92.02
2023-03-26T00:19:36.009Z,92.02
2023-03-26T00:20:35.931Z,91.81
2023-03-26T00:21:35.921Z,91.71
2023-03-26T00:22:35.900Z,91.60
2023-03-26T00:23:35.896Z,91.50
2023-03-26T00:24:35.881Z,91.30
2023-03-26T00:25:35.867Z,91.30
2023-03-26T00:26:35.873Z,91.50
2023-03-26T00:27:35.867Z,91.46
2023-03-26T00:28:35.847Z,91.46
2023-03-26T00:29:35.878Z,91.36
2023-03-26T00:30:35.891Z,91.36
2023-03-26T00:31:35.827Z,91.15
2023-03-26T00:32:35.826Z,90.94
2023-03-26T00:33:35.789Z,90.73
2023-03-26T00:34:35.781Z,90.53
2023-03-26T00:35:35.766Z,90.12
2023-03-26T00:36:35.878Z,89.91
2023-03-26T00:37:35.750Z,89.71
2023-03-26T00:38:35.803Z,89.71
2023-03-26T00:39:35.733Z,89.29
2023-03-26T00:40:35.730Z,88.68
2023-03-26T00:41:35.750Z,88.26
2023-03-26T00:42:35.750Z,87.75
2023-03-26T00:43:35.746Z,87.75
2023-03-26T00:44:36.578Z,87.65
2023-03-26T00:45:35.698Z,87.40
2023-03-26T00:46:35.707Z,87.40
2023-03-26T00:47:35.661Z,87.40
2023-03-26T00:48:44.594Z,87.60
2023-03-26T00:49:36.638Z,87.81
2023-03-26T00:50:35.628Z,87.71
2023-03-26T00:51:35.903Z,87.60
2023-03-26T00:52:36.133Z,87.60
2023-03-26T00:53:35.590Z,87.60
2023-03-26T00:54:35.606Z,87.60
2023-03-26T00:55:35.606Z,87.71
2023-03-26T00:56:35.608Z,87.51
2023-03-26T00:57:36.332Z,87.19
2023-03-26T00:58:35.542Z,86.68
2023-03-26T00:59:35.539Z,86.16
2023-03-26T01:00:35.529Z,85.96
2023-03-26T01:01:35.639Z,86.06
2023-03-26T01:02:35.568Z,85.86
2023-03-26T01:03:35.658Z,85.65
2023-03-26T01:04:35.648Z,85.34
2023-03-26T01:05:35.495Z,85.24
2023-03-26T01:06:35.535Z,85.24
2023-03-26T01:07:35.452Z,85.14
2023-03-26T01:08:35.471Z,85.34
2023-03-26T01:09:35.430Z,85.24
2023-03-26T01:10:35.420Z,85.03
2023-03-26T01:11:35.416Z,85.03
2023-03-26T01:12:35.413Z,85.03
2023-03-26T01:13:35.380Z,84.93
2023-03-26T01:14:35.390Z,84.62
2023-03-26T01:15:35.423Z,84.62
2023-03-26T01:16:35.374Z,84.52
2023-03-26T01:17:35.345Z,84.00
2023-03-26T01:18:35.333Z,84.00
2023-03-26T01:19:35.316Z,84.21
2023-03-26T01:20:35.341Z,84.21
2023-03-26T01:21:35.307Z,84.42
2023-03-26T01:22:35.289Z,84.42
2023-03-26T01:23:35.309Z,84.21
2023-03-26T01:24:35.269Z,84.21
2023-03-26T01:25:35.252Z,84.21
2023-03-26T01:26:35.268Z,84.31
2023-03-26T01:27:35.244Z,84.11
2023-03-26T01:28:35.228Z,84.21
2023-03-26T01:29:35.230Z,83.49
2023-03-26T01:30:35.210Z,83.28
2023-03-26T01:31:35.217Z,83.49
2023-03-26T01:32:35.263Z,83.49
2023-03-26T01:33:35.283Z,83.49
2023-03-26T01:34:35.162Z,83.80
2023-03-26T01:35:35.224Z,83.90
2023-03-26T01:36:35.177Z,83.70
2023-03-26T01:37:35.144Z,83.39
2023-03-26T01:38:35.126Z,83.28
2023-03-26T01:39:35.124Z,83.39
2023-03-26T01:40:35.105Z,83.70
2023-03-26T01:41:35.111Z,83.59
2023-03-26T01:42:35.081Z,83.70
2023-03-26T01:43:35.078Z,83.70
2023-03-26T01:44:35.063Z,84.05
2023-03-26T01:45:35.053Z,83.63
2023-03-26T01:46:35.078Z,83.73
2023-03-26T01:47:35.068Z,83.94
2023-03-26T01:48:35.017Z,84.05
2023-03-26T01:49:35.020Z,83.84
2023-03-26T01:50:34.999Z,84.14
2023-03-26T01:51:35.012Z,84.35
2023-03-26T01:52:34.999Z,84.05
2023-03-26T01:53:34.984Z,84.14
2023-03-26T01:54:34.958Z,84.14
2023-03-26T01:55:34.956Z,84.25
2023-03-26T01:56:35.010Z,83.94
2023-03-26T01:57:34.933Z,84.05
2023-03-26T01:58:34.915Z,83.94
2023-03-26T01:59:34.925Z,83.94
2023-03-26T02:00:34.918Z,84.14
2023-03-26T02:01:35.028Z,83.73
2023-03-26T02:02:35.033Z,84.05
2023-03-26T02:03:34.925Z,84.66
2023-03-26T02:04:34.873Z,83.94
2023-03-26T02:05:34.862Z,84.05
2023-03-26T02:06:34.857Z,84.05
2023-03-26T02:07:34.845Z,83.94
2023-03-26T02:08:34.815Z,84.25
2023-03-26T02:09:34.817Z,84.45
2023-03-26T02:10:34.814Z,84.56
2023-03-26T02:11:35.981Z,84.56
2023-03-26T02:12:34.787Z,84.35
2023-03-26T02:13:34.785Z,84.45
2023-03-26T02:14:34.752Z,84.77
2023-03-26T02:15:34.758Z,84.77
2023-03-26T02:16:34.773Z,84.66
2023-03-26T02:17:34.759Z,84.77
2023-03-26T02:18:34.716Z,84.77
2023-03-26T02:19:34.707Z,85.07
2023-03-26T02:20:34.711Z,85.17
2023-03-26T02:21:34.702Z,85.17
2023-03-26T02:22:34.692Z,85.17
2023-03-26T02:23:34.681Z,85.49
2023-03-26T02:24:34.652Z,85.59
2023-03-26T02:25:34.669Z,85.79
2023-03-26T02:26:34.634Z,86.10
2023-03-26T02:27:34.671Z,86.21
2023-03-26T02:28:34.614Z,86.41
2023-03-26T02:29:34.621Z,86.41
2023-03-26T02:30:34.607Z,86.52
2023-03-26T02:31:34.620Z,86.52
2023-03-26T02:32:34.600Z,86.72
2023-03-26T02:33:34.565Z,86.72
2023-03-26T02:34:34.562Z,86.72
2023-03-26T02:35:34.689Z,86.72
2023-03-26T02:36:34.626Z,86.82
2023-03-26T02:37:34.533Z,86.93
2023-03-26T02:38:34.514Z,86.93
2023-03-26T02:39:34.509Z,87.13
2023-03-26T02:40:34.486Z,87.13
2023-03-26T02:41:34.488Z,87.03
2023-03-26T02:42:34.480Z,87.03
2023-03-26T02:43:34.475Z,87.03
2023-03-26T02:44:34.508Z,87.03
2023-03-26T02:45:34.489Z,87.03
2023-03-26T02:46:34.435Z,87.03
2023-03-26T02:47:34.489Z,87.03
2023-03-26T02:48:34.410Z,87.13
2023-03-26T02:49:34.403Z,87.03
2023-03-26T02:50:34.381Z,86.72
2023-03-26T02:51:34.381Z,86.41
2023-03-26T02:52:34.384Z,86.52
2023-03-26T02:53:34.382Z,86.55
2023-03-26T02:54:34.356Z,86.55
2023-03-26T02:55:34.348Z,86.66
2023-03-26T02:56:34.373Z,86.55
2023-03-26T02:57:34.334Z,86.35
2023-03-26T02:58:34.312Z,86.24
2023-03-26T02:59:34.306Z,86.24
2023-03-26T03:00:34.282Z,86.35
2023-03-26T03:01:34.319Z,86.55
2023-03-26T03:02:34.470Z,86.45
2023-03-26T03:03:34.303Z,86.55
2023-03-26T03:04:34.254Z,86.66
2023-03-26T03:05:34.270Z,86.66
2023-03-26T03:06:34.219Z,86.66
2023-03-26T03:07:34.230Z,86.55
2023-03-26T03:08:34.203Z,86.55
2023-03-26T03:09:34.205Z,86.66
2023-03-26T03:10:34.186Z,86.35
2023-03-26T03:11:34.191Z,86.55
2023-03-26T03:12:34.193Z,86.66
2023-03-26T03:13:34.159Z,86.76
2023-03-26T03:14:34.152Z,86.76
2023-03-26T03:15:34.140Z,86.76
2023-03-26T03:16:34.151Z,86.87
2023-03-26T03:17:34.148Z,87.07
2023-03-26T03:18:34.111Z,87.17
2023-03-26T03:19:34.105Z,87.27
2023-03-26T03:20:34.087Z,87.27
2023-03-26T03:21:34.076Z,87.27
2023-03-26T03:22:34.090Z,87.27
2023-03-26T03:23:34.080Z,87.27
2023-03-26T03:24:34.043Z,87.38
2023-03-26T03:25:34.065Z,87.42
2023-03-26T03:26:34.037Z,87.52
2023-03-26T03:27:34.023Z,87.73
2023-03-26T03:28:34.014Z,87.73
2023-03-26T03:29:34.005Z,87.83
2023-03-26T03:30:33.983Z,88.04
2023-03-26T03:31:33.986Z,88.24
2023-03-26T03:32:33.983Z,88.24
2023-03-26T03:33:33.972Z,88.04
2023-03-26T03:34:33.944Z,88.14
2023-03-26T03:35:33.986Z,88.35
2023-03-26T03:36:33.923Z,88.56
2023-03-26T03:37:33.922Z,88.35
2023-03-26T03:38:33.936Z,88.45
2023-03-26T03:39:33.894Z,88.56
2023-03-26T03:40:33.882Z,88.65
2023-03-26T03:41:33.885Z,88.76
2023-03-26T03:42:33.869Z,88.86
2023-03-26T03:43:33.873Z,88.86
2023-03-26T03:44:33.855Z,88.76
2023-03-26T03:45:33.837Z,88.76
2023-03-26T03:46:33.881Z,88.96
2023-03-26T03:47:33.839Z,89.07
2023-03-26T03:48:33.816Z,88.96
2023-03-26T03:49:33.798Z,88.86
2023-03-26T03:50:35.797Z,88.96
2023-03-26T03:51:33.777Z,88.96
2023-03-26T03:52:33.766Z,89.07
2023-03-26T03:53:33.770Z,89.07
2023-03-26T03:54:33.739Z,89.07
2023-03-26T03:55:33.740Z,89.17
2023-03-26T03:56:33.716Z,89.38
2023-03-26T03:57:33.735Z,89.38
2023-03-26T03:58:33.718Z,89.38
2023-03-26T03:59:33.704Z,89.48
2023-03-26T04:00:33.677Z,89.58
2023-03-26T04:01:33.686Z,89.69
2023-03-26T04:02:33.717Z,89.69
2023-03-26T04:03:34.548Z,89.69
2023-03-26T04:04:33.671Z,89.79
2023-03-26T04:05:33.649Z,89.79
2023-03-26T04:06:33.618Z,89.89
2023-03-26T04:07:33.617Z,89.89
2023-03-26T04:08:33.620Z,89.89
2023-03-26T04:09:33.601Z,89.89
2023-03-26T04:10:33.577Z,89.89
2023-03-26T04:11:33.596Z,89.89
2023-03-26T04:12:33.558Z,89.89
2023-03-26T04:13:33.570Z,89.89
2023-03-26T04:14:33.540Z,89.89
2023-03-26T04:15:33.533Z,89.79
2023-03-26T04:16:33.616Z,89.79
2023-03-26T04:17:33.550Z,89.79
2023-03-26T04:18:33.513Z,89.79
2023-03-26T04:19:33.493Z,89.79
2023-03-26T04:20:33.474Z,89.69
2023-03-26T04:21:33.484Z,89.58
2023-03-26T04:22:33.474Z,89.58
2023-03-26T04:23:33.470Z,89.58
2023-03-26T04:24:33.446Z,89.48
2023-03-26T04:25:33.429Z,89.58
2023-03-26T04:26:33.421Z,89.58
2023-03-26T04:27:33.418Z,89.58
2023-03-26T04:28:33.407Z,89.58
2023-03-26T04:29:33.389Z,89.48
2023-03-26T04:30:33.376Z,89.58
2023-03-26T04:31:33.435Z,89.58
2023-03-26T04:32:33.372Z,89.48
2023-03-26T04:33:33.380Z,89.48
2023-03-26T04:34:33.370Z,89.54
2023-03-26T04:35:33.383Z,89.69
2023-03-26T04:36:33.313Z,89.65
2023-03-26T04:37:33.313Z,89.44
2023-03-26T04:38:33.308Z,89.34
2023-03-26T04:39:33.297Z,89.34
2023-03-26T04:40:33.274Z,89.23
2023-03-26T04:41:33.278Z,89.23
2023-03-26T04:42:33.265Z,89.34
2023-03-26T04:43:33.263Z,89.34
2023-03-26T04:44:33.237Z,89.23
2023-03-26T04:45:33.227Z,89.23
2023-03-26T04:46:33.262Z,89.23
2023-03-26T04:47:33.239Z,89.13
2023-03-26T04:48:33.247Z,89.23
2023-03-26T04:49:33.191Z,89.34
2023-03-26T04:50:33.187Z,89.34
2023-03-26T04:51:33.167Z,89.34
2023-03-26T04:52:33.158Z,89.34
2023-03-26T04:53:33.173Z,89.44
2023-03-26T04:54:33.140Z,89.54
2023-03-26T04:55:33.128Z,89.65
2023-03-26T04:56:33.163Z,89.65
2023-03-26T04:57:33.118Z,89.75
2023-03-26T04:58:33.178Z,89.75
2023-03-26T04:59:33.087Z,89.75
2023-03-26T05:00:33.074Z,89.75
2023-03-26T05:01:33.119Z,89.85
2023-03-26T05:02:33.083Z,89.95
2023-03-26T05:03:33.025Z,89.95
2023-03-26T05:04:33.049Z,89.95
2023-03-26T05:05:33.024Z,89.95
2023-03-26T05:06:33.009Z,89.95
2023-03-26T05:07:33.020Z,89.95
2023-03-26T05:08:33.000Z,90.06
2023-03-26T05:09:33.005Z,90.06
2023-03-26T05:10:32.972Z,90.06
2023-03-26T05:11:32.966Z,90.06
2023-03-26T05:12:32.963Z,90.16
2023-03-26T05:13:32.960Z,90.06
2023-03-26T05:14:33.064Z,90.16
2023-03-26T05:15:32.928Z,90.16
2023-03-26T05:16:32.977Z,90.16
2023-03-26T05:17:32.930Z,90.16
2023-03-26T05:18:32.887Z,90.16
2023-03-26T05:19:32.856Z,90.06
2023-03-26T05:20:32.869Z,90.16
2023-03-26T05:21:32.885Z,90.16
2023-03-26T05:22:32.846Z,90.06
2023-03-26T05:23:32.846Z,90.06
2023-03-26T05:24:32.840Z,90.16
2023-03-26T05:25:32.824Z,90.16
2023-03-26T05:26:32.761Z,90.06
2023-03-26T05:27:32.744Z,90.06
2023-03-26T05:28:32.730Z,89.95
2023-03-26T05:29:32.736Z,89.95
2023-03-26T05:30:32.711Z,89.95
2023-03-26T05:31:32.722Z,89.95
2023-03-26T05:32:32.780Z,89.95
2023-03-26T05:33:32.732Z,89.85
2023-03-26T05:34:32.691Z,89.75
2023-03-26T05:35:32.707Z,89.75
2023-03-26T05:36:32.651Z,89.75
2023-03-26T05:37:32.646Z,89.95
2023-03-26T05:38:32.635Z,89.95
2023-03-26T05:39:32.644Z,89.85
2023-03-26T05:40:32.605Z,89.85
2023-03-26T05:41:32.618Z,89.95
2023-03-26T05:42:32.604Z,90.06
2023-03-26T05:43:32.586Z,90.06
2023-03-26T05:44:32.586Z,90.06
2023-03-26T05:45:32.565Z,90.16
2023-03-26T05:46:32.582Z,90.06
2023-03-26T05:47:32.654Z,90.16
2023-03-26T05:48:32.540Z,90.37
2023-03-26T05:49:32.537Z,90.47
2023-03-26T05:50:32.521Z,90.57
2023-03-26T05:51:32.505Z,90.57
2023-03-26T05:52:32.501Z,90.67
2023-03-26T05:53:32.480Z,90.67
2023-03-26T05:54:32.497Z,90.78
2023-03-26T05:55:32.465Z,90.78
2023-03-26T05:56:32.525Z,90.78
2023-03-26T05:57:32.446Z,90.78
2023-03-26T05:58:32.462Z,90.67
2023-03-26T05:59:32.437Z,90.67
2023-03-26T06:00:32.426Z,90.67
2023-03-26T06:01:32.401Z,90.78
2023-03-26T06:02:32.427Z,90.78
2023-03-26T06:03:32.511Z,90.78
2023-03-26T06:04:32.454Z,90.67
2023-03-26T06:05:32.356Z,90.67
2023-03-26T06:06:33.294Z,90.88
2023-03-26T06:07:32.342Z,90.99
2023-03-26T06:08:32.337Z,90.99
2023-03-26T06:09:32.347Z,91.09
2023-03-26T06:10:32.307Z,91.19
2023-03-26T06:11:32.415Z,91.09
2023-03-26T06:12:32.293Z,91.19
2023-03-26T06:13:32.285Z,91.19
2023-03-26T06:14:32.286Z,91.19
2023-03-26T06:15:32.280Z,91.30
2023-03-26T06:16:32.301Z,91.30
2023-03-26T06:17:32.245Z,91.30
2023-03-26T06:18:32.248Z,91.30
2023-03-26T06:19:32.239Z,91.19
2023-03-26T06:20:32.219Z,91.30
2023-03-26T06:21:32.192Z,91.30
2023-03-26T06:22:32.195Z,91.30
2023-03-26T06:23:32.176Z,91.30
2023-03-26T06:24:32.187Z,91.30
2023-03-26T06:25:32.170Z,91.30
2023-03-26T06:26:32.155Z,91.30
2023-03-26T06:27:32.135Z,91.30
2023-03-26T06:28:32.136Z,91.30
2023-03-26T06:29:32.138Z,91.30
2023-03-26T06:30:32.111Z,91.19
2023-03-26T06:31:32.134Z,91.30
2023-03-26T06:32:32.111Z,91.19
2023-03-26T06:33:32.081Z,91.19
2023-03-26T06:34:32.098Z,91.09
2023-03-26T06:35:32.124Z,91.19
2023-03-26T06:36:32.050Z,91.30
2023-03-26T06:37:32.041Z,91.40
2023-03-26T06:38:32.071Z,91.30
2023-03-26T06:39:32.073Z,91.19
2023-03-26T06:40:32.021Z,90.99
2023-03-26T06:41:31.986Z,90.88
2023-03-26T06:43:08.874Z,90.73
2023-03-26T06:43:32.967Z,90.73
2023-03-26T06:44:31.999Z,90.64
2023-03-26T06:45:31.959Z,90.64
2023-03-26T06:46:31.975Z,90.43
2023-03-26T06:47:31.994Z,90.22
2023-03-26T06:48:31.929Z,90.33
2023-03-26T06:49:31.944Z,90.33
2023-03-26T06:50:31.936Z,90.01
2023-03-26T06:51:31.895Z,89.91
2023-03-26T06:52:31.885Z,89.61
2023-03-26T06:53:31.878Z,89.67
2023-03-26T06:54:31.902Z,89.87
2023-03-26T06:55:31.860Z,89.97
2023-03-26T06:56:31.880Z,90.18
2023-03-26T06:57:31.835Z,90.28
2023-03-26T06:58:31.842Z,90.08
2023-03-26T06:59:31.837Z,89.87
2023-03-26T07:00:31.825Z,89.36
2023-03-26T07:01:31.872Z,89.15
2023-03-26T07:02:31.826Z,89.11
2023-03-26T07:03:31.786Z,88.70
2023-03-26T07:04:32.029Z,88.70
2023-03-26T07:05:31.757Z,88.70
2023-03-26T07:06:31.747Z,88.70
2023-03-26T07:07:31.741Z,88.80
2023-03-26T07:08:31.730Z,88.80
2023-03-26T07:09:31.725Z,88.80
2023-03-26T07:10:31.723Z,88.70
2023-03-26T07:11:31.714Z,88.49
2023-03-26T07:12:31.688Z,88.14
2023-03-26T07:13:31.681Z,88.04
2023-03-26T07:14:31.699Z,87.73
2023-03-26T07:15:31.680Z,87.84
2023-03-26T07:16:31.709Z,87.73
2023-03-26T07:17:31.640Z,87.73
2023-03-26T07:18:31.621Z,87.63
2023-03-26T07:19:31.620Z,87.01
2023-03-26T07:20:31.608Z,87.01
2023-03-26T07:21:31.699Z,87.22
2023-03-26T07:22:31.591Z,87.32
2023-03-26T07:23:31.567Z,87.01
2023-03-26T07:24:31.585Z,86.97
2023-03-26T07:25:31.551Z,86.87
2023-03-26T07:26:31.557Z,86.87
2023-03-26T07:27:31.529Z,86.56
2023-03-26T07:28:31.541Z,86.35
2023-03-26T07:29:31.526Z,85.94
2023-03-26T07:30:31.500Z,85.94
2023-03-26T07:31:31.510Z,86.25
2023-03-26T07:32:31.517Z,85.94
2023-03-26T07:33:31.461Z,86.05
2023-03-26T07:34:31.491Z,85.84
2023-03-26T07:35:31.493Z,85.84
2023-03-26T07:36:31.442Z,85.84
2023-03-26T07:37:31.431Z,85.53
2023-03-26T07:38:31.418Z,85.74
2023-03-26T07:39:31.434Z,85.43
2023-03-26T07:40:31.398Z,85.43
2023-03-26T07:41:31.387Z,85.53
2023-03-26T07:42:31.397Z,85.22
2023-03-26T07:43:31.357Z,85.12
2023-03-26T07:44:32.272Z,85.33
2023-03-26T07:45:31.389Z,85.43
2023-03-26T07:46:31.341Z,85.28
2023-03-26T07:47:31.363Z,85.39
2023-03-26T07:48:31.334Z,85.49
2023-03-26T07:49:31.317Z,85.08
2023-03-26T07:50:31.306Z,85.08
2023-03-26T07:51:31.290Z,84.77
2023-03-26T07:52:31.275Z,84.47
2023-03-26T07:53:31.265Z,84.47
2023-03-26T07:54:31.269Z,84.67
2023-03-26T07:55:31.234Z,84.47
2023-03-26T07:56:31.328Z,84.67
2023-03-26T07:57:32.231Z,84.77
2023-03-26T07:58:31.220Z,84.77
2023-03-26T07:59:31.211Z,84.47
2023-03-26T08:00:31.185Z,84.67
2023-03-26T08:01:31.172Z,84.26
2023-03-26T08:02:31.227Z,84.16
2023-03-26T08:03:31.294Z,84.36
2023-03-26T08:04:31.259Z,84.26
2023-03-26T08:05:31.138Z,84.47
2023-03-26T08:06:31.150Z,84.47
2023-03-26T08:07:31.110Z,84.05
2023-03-26T08:08:31.105Z,84.26
2023-03-26T08:09:31.157Z,84.36
2023-03-26T08:10:31.085Z,84.47
2023-03-26T08:11:31.088Z,84.56
2023-03-26T08:12:31.102Z,85.14
2023-03-26T08:13:31.065Z,84.56
2023-03-26T08:14:31.052Z,84.56
2023-03-26T08:15:31.133Z,84.56
2023-03-26T08:16:31.030Z,84.26
2023-03-26T08:17:31.423Z,84.26
2023-03-26T08:18:31.007Z,84.26
2023-03-26T08:19:30.991Z,84.67
2023-03-26T08:20:31.045Z,84.77
2023-03-26T08:21:30.961Z,85.18
2023-03-26T08:22:30.975Z,85.08
2023-03-26T08:23:30.960Z,85.18
2023-03-26T08:24:30.949Z,85.18
2023-03-26T08:25:30.945Z,85.18
2023-03-26T08:26:30.915Z,84.98
2023-03-26T08:27:30.904Z,84.42
2023-03-26T08:28:30.899Z,84.26
2023-03-26T08:29:30.881Z,84.47
2023-03-26T08:30:30.892Z,84.47
2023-03-26T08:31:30.919Z,84.36
2023-03-26T08:32:30.875Z,84.26
2023-03-26T08:33:30.840Z,84.56
2023-03-26T08:34:30.843Z,84.56
2023-03-26T08:35:30.867Z,84.88
2023-03-26T08:36:30.813Z,84.77
2023-03-26T08:37:30.804Z,84.47
2023-03-26T08:38:30.814Z,84.56
2023-03-26T08:39:30.776Z,84.88
2023-03-26T08:40:30.790Z,85.25
2023-03-26T08:41:30.759Z,84.63
2023-03-26T08:42:30.796Z,84.42
2023-03-26T08:43:30.764Z,84.42
2023-03-26T08:44:30.732Z,84.32
2023-03-26T08:45:30.736Z,84.22
2023-03-26T08:46:30.747Z,84.32
2023-03-26T08:47:30.722Z,84.63
2023-03-26T08:48:30.701Z,84.74
2023-03-26T08:49:30.676Z,84.53
2023-03-26T08:50:30.695Z,84.63
2023-03-26T08:51:30.655Z,84.53
2023-03-26T08:52:30.665Z,84.42
2023-03-26T08:53:30.633Z,84.53
2023-03-26T08:54:30.651Z,84.01
2023-03-26T08:55:30.628Z,84.01
2023-03-26T08:56:30.625Z,84.22
2023-03-26T08:57:30.589Z,84.53
2023-03-26T08:58:30.587Z,84.01
2023-03-26T08:59:30.582Z,84.01
2023-03-26T09:00:30.591Z,84.12
2023-03-26T09:01:30.621Z,84.42
2023-03-26T09:02:30.554Z,84.69
2023-03-26T09:03:30.571Z,84.08
2023-03-26T09:04:30.530Z,83.26
2023-03-26T09:05:30.544Z,83.56
2023-03-26T09:06:30.502Z,83.56
2023-03-26T09:07:30.493Z,83.56
2023-03-26T09:08:30.492Z,83.46
2023-03-26T09:09:30.472Z,83.15
2023-03-26T09:10:30.499Z,82.84
2023-03-26T09:11:30.459Z,82.95
2023-03-26T09:12:30.445Z,82.75
2023-03-26T09:13:30.456Z,82.75
2023-03-26T09:14:30.432Z,82.84
2023-03-26T09:15:30.430Z,83.15
2023-03-26T09:16:30.433Z,83.46
2023-03-26T09:17:30.403Z,83.46
2023-03-26T09:18:30.423Z,83.46
2023-03-26T09:19:30.378Z,83.77
2023-03-26T09:20:30.388Z,83.67
2023-03-26T09:21:30.348Z,83.26
2023-03-26T09:22:30.354Z,83.05
2023-03-26T09:23:30.335Z,82.75
2023-03-26T09:24:30.319Z,82.95
2023-03-26T09:25:30.352Z,83.15
2023-03-26T09:26:30.317Z,83.15
2023-03-26T09:27:30.297Z,83.26
2023-03-26T09:28:30.292Z,83.26
2023-03-26T09:29:32.369Z,83.56
2023-03-26T09:30:30.278Z,83.15
2023-03-26T09:31:30.267Z,82.75
2023-03-26T09:32:30.315Z,82.54
2023-03-26T09:33:30.227Z,82.75
2023-03-26T09:34:30.244Z,82.84
2023-03-26T09:35:30.297Z,82.75
2023-03-26T09:36:30.201Z,82.95
2023-03-26T09:37:30.187Z,82.95
2023-03-26T09:38:30.195Z,83.05
2023-03-26T09:39:30.170Z,83.56
2023-03-26T09:40:30.177Z,83.46
2023-03-26T09:41:30.149Z,83.46
2023-03-26T09:42:30.133Z,83.36
2023-03-26T09:43:30.132Z,83.56
2023-03-26T09:44:30.128Z,83.46
2023-03-26T09:45:30.145Z,83.67
2023-03-26T09:46:30.099Z,83.46
2023-03-26T09:47:30.139Z,84.18
2023-03-26T09:48:30.087Z,84.08
2023-03-26T09:49:30.083Z,84.08
2023-03-26T09:50:30.079Z,83.94
2023-03-26T09:51:30.048Z,83.73
2023-03-26T09:52:30.034Z,83.83
2023-03-26T09:53:30.034Z,84.14
2023-03-26T09:54:30.021Z,84.14
2023-03-26T09:55:30.054Z,84.14
2023-03-26T09:56:30.051Z,83.73
2023-03-26T09:57:30.007Z,83.42
2023-03-26T09:58:29.978Z,83.83
2023-03-26T09:59:29.969Z,83.94
2023-03-26T10:00:29.966Z,84.14
2023-03-26T10:01:30.033Z,84.04
2023-03-26T10:02:46.107Z,84.25
2023-03-26T10:03:30.981Z,84.34
2023-03-26T10:04:29.959Z,84.45
2023-03-26T10:05:29.979Z,84.45
2023-03-26T10:06:29.898Z,84.55
2023-03-26T10:07:29.893Z,84.86
2023-03-26T10:08:32.179Z,84.76
2023-03-26T10:09:29.869Z,85.06
2023-03-26T10:10:29.857Z,84.45
2023-03-26T10:11:29.843Z,85.06
2023-03-26T10:12:29.840Z,85.27
2023-03-26T10:13:29.828Z,85.58
2023-03-26T10:14:29.817Z,85.93
2023-03-26T10:15:29.879Z,85.93
2023-03-26T10:16:29.812Z,86.13
2023-03-26T10:17:29.829Z,86.65
2023-03-26T10:18:30.263Z,86.54
2023-03-26T10:19:29.761Z,87.26
2023-03-26T10:20:29.770Z,86.95
2023-03-26T10:21:29.742Z,86.85
2023-03-26T10:22:29.726Z,86.95
2023-03-26T10:23:29.718Z,86.24
2023-03-26T10:24:29.723Z,86.44
2023-03-26T10:25:29.805Z,86.44
2023-03-26T10:26:29.698Z,86.85
2023-03-26T10:27:29.693Z,87.46
2023-03-26T10:28:29.667Z,87.46
2023-03-26T10:29:29.661Z,87.46
2023-03-26T10:30:29.696Z,86.99
2023-03-26T10:31:29.639Z,87.16
2023-03-26T10:32:29.630Z,87.37
2023-03-26T10:33:29.621Z,87.46
2023-03-26T10:34:29.816Z,87.67
2023-03-26T10:35:29.710Z,87.26
2023-03-26T10:36:29.901Z,87.37
2023-03-26T10:37:29.574Z,87.40
2023-03-26T10:38:29.575Z,87.61
2023-03-26T10:39:37.636Z,87.92
2023-03-26T10:40:30.558Z,87.51
2023-03-26T10:41:29.542Z,87.77
2023-03-26T10:42:29.539Z,88.02
2023-03-26T10:43:29.509Z,88.33
2023-03-26T10:44:29.490Z,88.59
2023-03-26T10:45:29.525Z,88.59
2023-03-26T10:46:29.513Z,88.29
2023-03-26T10:47:29.487Z,88.29
2023-03-26T10:48:29.452Z,88.18
2023-03-26T10:49:29.446Z,87.37
2023-03-26T10:50:29.449Z,87.16
2023-03-26T10:51:29.433Z,86.95
2023-03-26T10:52:29.414Z,87.37
2023-03-26T10:53:29.402Z,87.77
2023-03-26T10:54:29.397Z,87.98
2023-03-26T10:55:29.426Z,88.18
2023-03-26T10:56:29.378Z,88.29
2023-03-26T10:57:29.371Z,88.39
2023-03-26T10:58:29.353Z,88.39
2023-03-26T10:59:30.342Z,88.70
2023-03-26T11:00:29.347Z,88.90
2023-03-26T11:01:29.389Z,89.11
2023-03-26T11:02:30.738Z,89.11
2023-03-26T11:03:29.306Z,88.80
2023-03-26T11:04:29.297Z,88.80
2023-03-26T11:05:29.352Z,88.90
2023-03-26T11:06:29.278Z,89.52
2023-03-26T11:07:29.277Z,89.42
2023-03-26T11:08:31.466Z,89.21
2023-03-26T11:09:29.251Z,89.42
2023-03-26T11:10:29.243Z,89.52
2023-03-26T11:11:29.219Z,89.72
2023-03-26T11:12:29.225Z,90.03
2023-03-26T11:13:29.220Z,90.03
2023-03-26T11:14:34.826Z,90.03
2023-03-26T11:15:30.223Z,90.14
2023-03-26T11:16:29.176Z,90.34
2023-03-26T11:17:40.864Z,90.34
2023-03-26T11:18:30.151Z,90.44
2023-03-26T11:19:29.144Z,90.65
2023-03-26T11:20:29.152Z,90.95
2023-03-26T11:21:29.148Z,90.85
2023-03-26T11:22:29.112Z,90.85
2023-03-26T11:23:29.102Z,91.06
2023-03-26T11:24:29.090Z,90.65
2023-03-26T11:25:29.096Z,90.55
2023-03-26T11:26:29.070Z,90.65
2023-03-26T11:27:29.060Z,90.75
2023-03-26T11:28:29.062Z,90.75
2023-03-26T11:29:31.281Z,90.75
2023-03-26T11:30:29.041Z,90.85
2023-03-26T11:31:29.071Z,90.75
2023-03-26T11:32:29.027Z,90.55
2023-03-26T11:33:32.553Z,90.65
2023-03-26T11:34:28.989Z,90.75
2023-03-26T11:35:40.969Z,90.95
2023-03-26T11:36:29.977Z,90.95
2023-03-26T11:37:29.003Z,91.27
2023-03-26T11:38:28.989Z,91.37
2023-03-26T11:39:28.945Z,90.24
2023-03-26T11:40:28.924Z,88.80
2023-03-26T11:41:28.965Z,87.10
2023-03-26T11:42:28.939Z,85.55
2023-03-26T11:43:28.901Z,85.66
2023-03-26T11:44:28.895Z,85.86
2023-03-26T11:45:28.878Z,86.27
2023-03-26T11:46:28.957Z,86.17
2023-03-26T11:47:28.897Z,86.89
2023-03-26T11:48:28.849Z,86.72
2023-03-26T11:49:28.867Z,87.55
2023-03-26T11:50:28.843Z,88.06
2023-03-26T11:51:28.840Z,87.55
2023-03-26T11:52:28.804Z,87.45
2023-03-26T11:53:28.801Z,87.34
2023-03-26T11:54:28.790Z,87.65
2023-03-26T11:55:28.778Z,87.96
2023-03-26T11:56:28.781Z,88.06
2023-03-26T11:57:28.813Z,88.27
2023-03-26T11:58:28.746Z,88.78
2023-03-26T11:59:28.729Z,88.89
2023-03-26T12:00:28.745Z,88.98
2023-03-26T12:01:28.725Z,89.50
2023-03-26T12:02:28.767Z,89.81
2023-03-26T12:03:28.820Z,89.81
2023-03-26T12:04:30.708Z,89.29
2023-03-26T12:05:28.666Z,89.29
2023-03-26T12:06:28.673Z,89.70
2023-03-26T12:07:28.671Z,89.09
2023-03-26T12:08:28.655Z,89.09
2023-03-26T12:09:28.632Z,89.91
2023-03-26T12:10:28.630Z,90.22
2023-03-26T12:11:28.632Z,89.60
2023-03-26T12:12:28.614Z,88.89
2023-03-26T12:13:28.624Z,88.78
2023-03-26T12:14:28.584Z,87.49
2023-03-26T12:15:28.563Z,87.07
2023-03-26T12:16:28.575Z,86.97
2023-03-26T12:17:31.356Z,87.28
2023-03-26T12:18:28.539Z,88.14
2023-03-26T12:19:28.520Z,88.76
2023-03-26T12:20:28.534Z,89.17
2023-03-26T12:21:28.550Z,87.42
2023-03-26T12:22:28.486Z,87.73
2023-03-26T12:23:28.480Z,88.76
2023-03-26T12:24:28.488Z,89.58
2023-03-26T12:25:28.463Z,89.58
2023-03-26T12:26:28.459Z,89.83
2023-03-26T12:27:28.567Z,90.14
2023-03-26T12:28:28.428Z,88.80
2023-03-26T12:29:28.426Z,87.67
2023-03-26T12:30:28.405Z,88.29
2023-03-26T12:31:28.505Z,88.49
2023-03-26T12:32:42.968Z,88.90
2023-03-26T12:33:29.457Z,88.29
2023-03-26T12:34:28.369Z,88.49
2023-03-26T12:35:28.395Z,88.80
2023-03-26T12:36:28.359Z,89.52
2023-03-26T12:37:28.327Z,89.22
2023-03-26T12:38:28.322Z,89.56
2023-03-26T12:40:10.203Z,89.25
2023-03-26T12:40:29.310Z,89.36
2023-03-26T12:44:46.550Z,88.74
2023-03-26T12:44:47.105Z,89.36
2023-03-26T12:44:50.878Z,89.25
2023-03-26T12:44:56.532Z,88.95
2023-03-26T12:45:29.241Z,88.84
2023-03-26T12:47:56.037Z,89.05
2023-03-26T12:47:57.212Z,89.36
2023-03-26T12:48:29.289Z,89.15
2023-03-26T12:49:28.244Z,88.33
2023-03-26T12:50:34.199Z,88.43
2023-03-26T12:51:29.203Z,86.88
2023-03-26T12:52:28.181Z,86.88